sensor_id;sensor_type;location;lat;lon;timestamp;P1;durP1;ratioP1;P2;durP2;ratioP2
20441;SDS011;10380;52.102;20.614;2023-01-04T00:01:08;16.10;;;9.90;;
20441;SDS011;10380;52.102;20.614;2023-01-04T00:03:36;15.77;;;10.03;;
20441;SDS011;10380;52.102;20.614;2023-01-04T00:06:04;15.60;;;9.83;;
20441;SDS011;10380;52.102;20.614;2023-01-04T00:08:33;18.67;;;10.80;;
20441;SDS011;10380;52.102;20.614;2023-01-04T00:11:00;15.63;;;9.97;;
20441;SDS011;10380;52.102;20.614;2023-01-04T00:13:29;17.83;;;9.57;;
20441;SDS011;10380;52.102;20.614;2023-01-04T00:15:57;17.87;;;9.73;;
20441;SDS011;10380;52.102;20.614;2023-01-04T00:18:34;14.67;;;9.93;;
20441;SDS011;10380;52.102;20.614;2023-01-04T00:23:44;15.00;;;9.90;;
20441;SDS011;10380;52.102;20.614;2023-01-04T00:26:14;16.90;;;10.17;;
20441;SDS011;10380;52.102;20.614;2023-01-04T00:28:42;16.80;;;10.63;;
20441;SDS011;10380;52.102;20.614;2023-01-04T00:31:19;16.40;;;9.10;;
20441;SDS011;10380;52.102;20.614;2023-01-04T00:33:47;17.17;;;9.13;;
20441;SDS011;10380;52.102;20.614;2023-01-04T00:36:15;15.17;;;9.93;;
20441;SDS011;10380;52.102;20.614;2023-01-04T00:38:42;19.07;;;10.47;;
20441;SDS011;10380;52.102;20.614;2023-01-04T00:41:10;18.10;;;9.97;;
20441;SDS011;10380;52.102;20.614;2023-01-04T00:43:58;20.70;;;11.43;;
20441;SDS011;10380;52.102;20.614;2023-01-04T00:46:29;20.83;;;10.83;;
20441;SDS011;10380;52.102;20.614;2023-01-04T00:48:58;15.67;;;10.93;;
20441;SDS011;10380;52.102;20.614;2023-01-04T00:51:27;21.07;;;10.00;;
20441;SDS011;10380;52.102;20.614;2023-01-04T00:53:55;21.73;;;11.37;;
20441;SDS011;10380;52.102;20.614;2023-01-04T00:56:23;16.37;;;10.17;;
20441;SDS011;10380;52.102;20.614;2023-01-04T00:58:56;16.53;;;10.27;;
20441;SDS011;10380;52.102;20.614;2023-01-04T01:01:25;19.83;;;11.00;;
20441;SDS011;10380;52.102;20.614;2023-01-04T01:03:57;18.70;;;11.30;;
20441;SDS011;10380;52.102;20.614;2023-01-04T01:06:26;20.73;;;10.83;;
20441;SDS011;10380;52.102;20.614;2023-01-04T01:08:54;19.80;;;11.70;;
20441;SDS011;10380;52.102;20.614;2023-01-04T01:11:22;18.93;;;10.60;;
20441;SDS011;10380;52.102;20.614;2023-01-04T01:13:49;15.33;;;9.50;;
20441;SDS011;10380;52.102;20.614;2023-01-04T01:16:18;15.00;;;9.40;;
20441;SDS011;10380;52.102;20.614;2023-01-04T01:19:07;16.87;;;9.70;;
20441;SDS011;10380;52.102;20.614;2023-01-04T01:21:35;17.93;;;10.90;;
20441;SDS011;10380;52.102;20.614;2023-01-04T01:24:03;18.10;;;10.73;;
20441;SDS011;10380;52.102;20.614;2023-01-04T01:26:31;15.63;;;9.97;;
20441;SDS011;10380;52.102;20.614;2023-01-04T01:28:58;14.63;;;9.87;;
20441;SDS011;10380;52.102;20.614;2023-01-04T01:31:27;16.60;;;10.27;;
20441;SDS011;10380;52.102;20.614;2023-01-04T01:33:54;19.23;;;10.90;;
20441;SDS011;10380;52.102;20.614;2023-01-04T01:36:23;18.10;;;10.43;;
20441;SDS011;10380;52.102;20.614;2023-01-04T01:38:51;19.93;;;10.03;;
20441;SDS011;10380;52.102;20.614;2023-01-04T01:41:27;18.73;;;11.43;;
20441;SDS011;10380;52.102;20.614;2023-01-04T01:46:40;20.97;;;10.10;;
20441;SDS011;10380;52.102;20.614;2023-01-04T01:49:12;20.07;;;10.60;;
20441;SDS011;10380;52.102;20.614;2023-01-04T01:51:48;18.83;;;9.57;;
20441;SDS011;10380;52.102;20.614;2023-01-04T01:54:18;19.17;;;9.83;;
20441;SDS011;10380;52.102;20.614;2023-01-04T01:56:52;14.70;;;9.23;;
20441;SDS011;10380;52.102;20.614;2023-01-04T01:59:21;21.57;;;10.83;;
20441;SDS011;10380;52.102;20.614;2023-01-04T02:01:48;22.23;;;10.40;;
20441;SDS011;10380;52.102;20.614;2023-01-04T02:04:15;21.67;;;11.20;;
20441;SDS011;10380;52.102;20.614;2023-01-04T02:06:47;17.23;;;10.80;;
20441;SDS011;10380;52.102;20.614;2023-01-04T02:09:16;19.57;;;11.17;;
20441;SDS011;10380;52.102;20.614;2023-01-04T02:11:45;19.17;;;11.03;;
20441;SDS011;10380;52.102;20.614;2023-01-04T02:14:12;17.13;;;11.37;;
20441;SDS011;10380;52.102;20.614;2023-01-04T02:31:03;19.93;;;12.03;;
20441;SDS011;10380;52.102;20.614;2023-01-04T02:33:59;21.93;;;12.30;;
20441;SDS011;10380;52.102;20.614;2023-01-04T02:39:27;18.53;;;11.97;;
20441;SDS011;10380;52.102;20.614;2023-01-04T02:42:24;21.47;;;11.83;;
20441;SDS011;10380;52.102;20.614;2023-01-04T02:45:42;20.47;;;11.83;;
20441;SDS011;10380;52.102;20.614;2023-01-04T02:48:14;20.73;;;12.37;;
20441;SDS011;10380;52.102;20.614;2023-01-04T02:51:00;19.83;;;11.83;;
20441;SDS011;10380;52.102;20.614;2023-01-04T02:53:35;26.50;;;13.27;;
20441;SDS011;10380;52.102;20.614;2023-01-04T03:04:47;23.77;;;12.40;;
20441;SDS011;10380;52.102;20.614;2023-01-04T03:13:10;20.83;;;11.77;;
20441;SDS011;10380;52.102;20.614;2023-01-04T03:15:49;26.23;;;12.03;;
20441;SDS011;10380;52.102;20.614;2023-01-04T03:18:22;22.63;;;12.67;;
20441;SDS011;10380;52.102;20.614;2023-01-04T03:20:53;20.20;;;11.73;;
20441;SDS011;10380;52.102;20.614;2023-01-04T03:23:25;20.43;;;12.37;;
20441;SDS011;10380;52.102;20.614;2023-01-04T03:26:14;19.03;;;11.87;;
20441;SDS011;10380;52.102;20.614;2023-01-04T03:29:25;17.80;;;12.17;;
20441;SDS011;10380;52.102;20.614;2023-01-04T03:32:25;22.43;;;11.60;;
20441;SDS011;10380;52.102;20.614;2023-01-04T03:35:19;19.27;;;11.37;;
20441;SDS011;10380;52.102;20.614;2023-01-04T03:37:58;22.17;;;11.33;;
20441;SDS011;10380;52.102;20.614;2023-01-04T03:40:53;23.53;;;10.70;;
20441;SDS011;10380;52.102;20.614;2023-01-04T03:43:45;24.30;;;11.27;;
20441;SDS011;10380;52.102;20.614;2023-01-04T03:46:47;26.60;;;11.83;;
20441;SDS011;10380;52.102;20.614;2023-01-04T03:49:43;21.10;;;11.93;;
20441;SDS011;10380;52.102;20.614;2023-01-04T03:52:14;27.07;;;12.83;;
20441;SDS011;10380;52.102;20.614;2023-01-04T03:54:43;21.20;;;11.97;;
20441;SDS011;10380;52.102;20.614;2023-01-04T03:57:13;24.43;;;13.27;;
20441;SDS011;10380;52.102;20.614;2023-01-04T03:59:44;24.27;;;13.30;;
20441;SDS011;10380;52.102;20.614;2023-01-04T04:02:21;29.00;;;13.80;;
20441;SDS011;10380;52.102;20.614;2023-01-04T04:04:51;19.93;;;12.13;;
20441;SDS011;10380;52.102;20.614;2023-01-04T04:07:37;26.77;;;13.43;;
20441;SDS011;10380;52.102;20.614;2023-01-04T04:10:23;21.27;;;13.03;;
20441;SDS011;10380;52.102;20.614;2023-01-04T04:12:50;26.67;;;15.07;;
20441;SDS011;10380;52.102;20.614;2023-01-04T04:15:17;25.70;;;13.67;;
20441;SDS011;10380;52.102;20.614;2023-01-04T04:17:45;24.83;;;14.40;;
20441;SDS011;10380;52.102;20.614;2023-01-04T04:20:12;23.30;;;14.47;;
20441;SDS011;10380;52.102;20.614;2023-01-04T04:22:39;22.83;;;13.00;;
20441;SDS011;10380;52.102;20.614;2023-01-04T04:25:07;26.40;;;14.77;;
20441;SDS011;10380;52.102;20.614;2023-01-04T04:27:35;27.53;;;15.07;;
20441;SDS011;10380;52.102;20.614;2023-01-04T04:30:02;23.40;;;13.57;;
20441;SDS011;10380;52.102;20.614;2023-01-04T04:32:30;28.03;;;14.93;;
20441;SDS011;10380;52.102;20.614;2023-01-04T04:34:57;24.17;;;15.90;;
20441;SDS011;10380;52.102;20.614;2023-01-04T04:37:25;25.67;;;14.63;;
20441;SDS011;10380;52.102;20.614;2023-01-04T04:39:53;26.47;;;15.20;;
20441;SDS011;10380;52.102;20.614;2023-01-04T04:42:21;26.20;;;13.83;;
20441;SDS011;10380;52.102;20.614;2023-01-04T04:44:48;24.40;;;13.67;;
20441;SDS011;10380;52.102;20.614;2023-01-04T04:47:15;21.20;;;13.47;;
20441;SDS011;10380;52.102;20.614;2023-01-04T04:49:44;26.13;;;14.37;;
20441;SDS011;10380;52.102;20.614;2023-01-04T04:52:11;27.07;;;14.20;;
20441;SDS011;10380;52.102;20.614;2023-01-04T04:54:38;22.43;;;13.17;;
20441;SDS011;10380;52.102;20.614;2023-01-04T04:57:05;25.93;;;15.27;;
20441;SDS011;10380;52.102;20.614;2023-01-04T04:59:32;29.87;;;14.43;;
20441;SDS011;10380;52.102;20.614;2023-01-04T05:01:59;25.57;;;15.60;;
20441;SDS011;10380;52.102;20.614;2023-01-04T05:04:27;28.07;;;14.73;;
20441;SDS011;10380;52.102;20.614;2023-01-04T05:06:54;26.57;;;15.97;;
20441;SDS011;10380;52.102;20.614;2023-01-04T05:09:22;27.33;;;15.17;;
20441;SDS011;10380;52.102;20.614;2023-01-04T05:11:49;33.53;;;15.67;;
20441;SDS011;10380;52.102;20.614;2023-01-04T05:14:34;25.80;;;14.17;;
20441;SDS011;10380;52.102;20.614;2023-01-04T05:17:02;34.07;;;15.83;;
20441;SDS011;10380;52.102;20.614;2023-01-04T05:19:29;27.60;;;14.97;;
20441;SDS011;10380;52.102;20.614;2023-01-04T05:21:56;27.70;;;14.53;;
20441;SDS011;10380;52.102;20.614;2023-01-04T05:24:23;23.63;;;14.20;;
20441;SDS011;10380;52.102;20.614;2023-01-04T05:26:50;24.90;;;14.20;;
20441;SDS011;10380;52.102;20.614;2023-01-04T05:29:17;26.60;;;15.73;;
20441;SDS011;10380;52.102;20.614;2023-01-04T05:32:03;27.73;;;15.40;;
20441;SDS011;10380;52.102;20.614;2023-01-04T05:34:31;24.13;;;15.03;;
20441;SDS011;10380;52.102;20.614;2023-01-04T05:36:58;27.00;;;16.23;;
20441;SDS011;10380;52.102;20.614;2023-01-04T05:39:25;25.40;;;16.30;;
20441;SDS011;10380;52.102;20.614;2023-01-04T05:41:52;28.17;;;15.87;;
20441;SDS011;10380;52.102;20.614;2023-01-04T05:44:38;27.27;;;15.53;;
20441;SDS011;10380;52.102;20.614;2023-01-04T05:47:06;30.00;;;16.37;;
20441;SDS011;10380;52.102;20.614;2023-01-04T05:49:40;25.13;;;14.93;;
20441;SDS011;10380;52.102;20.614;2023-01-04T05:52:07;28.90;;;15.60;;
20441;SDS011;10380;52.102;20.614;2023-01-04T05:54:34;27.37;;;15.87;;
20441;SDS011;10380;52.102;20.614;2023-01-04T05:57:01;33.37;;;17.30;;
20441;SDS011;10380;52.102;20.614;2023-01-04T05:59:28;30.37;;;16.97;;
20441;SDS011;10380;52.102;20.614;2023-01-04T06:02:05;27.77;;;16.03;;
20441;SDS011;10380;52.102;20.614;2023-01-04T06:04:32;30.17;;;16.73;;
20441;SDS011;10380;52.102;20.614;2023-01-04T06:07:00;33.33;;;17.00;;
20441;SDS011;10380;52.102;20.614;2023-01-04T06:09:27;31.07;;;16.53;;
20441;SDS011;10380;52.102;20.614;2023-01-04T06:11:55;36.07;;;18.43;;
20441;SDS011;10380;52.102;20.614;2023-01-04T06:14:23;31.00;;;17.77;;
20441;SDS011;10380;52.102;20.614;2023-01-04T06:16:50;42.40;;;19.57;;
20441;SDS011;10380;52.102;20.614;2023-01-04T06:19:17;31.90;;;18.37;;
20441;SDS011;10380;52.102;20.614;2023-01-04T06:21:45;36.07;;;19.13;;
20441;SDS011;10380;52.102;20.614;2023-01-04T06:24:12;36.40;;;18.40;;
20441;SDS011;10380;52.102;20.614;2023-01-04T06:26:39;31.73;;;18.50;;
20441;SDS011;10380;52.102;20.614;2023-01-04T06:29:06;33.47;;;19.10;;
20441;SDS011;10380;52.102;20.614;2023-01-04T06:31:34;30.10;;;16.43;;
20441;SDS011;10380;52.102;20.614;2023-01-04T06:34:01;36.43;;;19.70;;
20441;SDS011;10380;52.102;20.614;2023-01-04T06:36:29;35.33;;;19.97;;
20441;SDS011;10380;52.102;20.614;2023-01-04T06:38:57;33.50;;;18.97;;
20441;SDS011;10380;52.102;20.614;2023-01-04T06:41:25;31.43;;;18.93;;
20441;SDS011;10380;52.102;20.614;2023-01-04T06:43:53;39.17;;;20.80;;
20441;SDS011;10380;52.102;20.614;2023-01-04T06:46:20;32.63;;;21.60;;
20441;SDS011;10380;52.102;20.614;2023-01-04T06:48:48;34.87;;;20.30;;
20441;SDS011;10380;52.102;20.614;2023-01-04T06:51:15;32.13;;;20.10;;
20441;SDS011;10380;52.102;20.614;2023-01-04T06:53:43;35.70;;;20.57;;
20441;SDS011;10380;52.102;20.614;2023-01-04T06:56:10;37.13;;;19.93;;
20441;SDS011;10380;52.102;20.614;2023-01-04T06:58:37;34.90;;;21.87;;
20441;SDS011;10380;52.102;20.614;2023-01-04T07:01:05;35.27;;;21.47;;
20441;SDS011;10380;52.102;20.614;2023-01-04T07:03:32;40.63;;;19.47;;
20441;SDS011;10380;52.102;20.614;2023-01-04T07:06:02;35.00;;;20.47;;
20441;SDS011;10380;52.102;20.614;2023-01-04T07:08:32;34.70;;;19.70;;
20441;SDS011;10380;52.102;20.614;2023-01-04T07:10:59;34.30;;;20.43;;
20441;SDS011;10380;52.102;20.614;2023-01-04T07:13:27;33.70;;;19.67;;
20441;SDS011;10380;52.102;20.614;2023-01-04T07:15:54;36.00;;;19.77;;
20441;SDS011;10380;52.102;20.614;2023-01-04T07:18:21;39.97;;;20.27;;
20441;SDS011;10380;52.102;20.614;2023-01-04T07:20:48;33.80;;;19.07;;
20441;SDS011;10380;52.102;20.614;2023-01-04T07:23:15;33.13;;;19.23;;
20441;SDS011;10380;52.102;20.614;2023-01-04T07:25:43;34.87;;;19.57;;
20441;SDS011;10380;52.102;20.614;2023-01-04T07:28:10;32.13;;;20.10;;
20441;SDS011;10380;52.102;20.614;2023-01-04T07:30:38;35.10;;;19.30;;
20441;SDS011;10380;52.102;20.614;2023-01-04T07:33:05;34.90;;;19.40;;
20441;SDS011;10380;52.102;20.614;2023-01-04T07:35:32;32.73;;;19.17;;
20441;SDS011;10380;52.102;20.614;2023-01-04T07:38:00;40.80;;;20.17;;
20441;SDS011;10380;52.102;20.614;2023-01-04T07:40:28;36.50;;;20.27;;
20441;SDS011;10380;52.102;20.614;2023-01-04T07:42:56;36.43;;;20.93;;
20441;SDS011;10380;52.102;20.614;2023-01-04T07:45:24;36.67;;;21.47;;
20441;SDS011;10380;52.102;20.614;2023-01-04T07:47:52;49.50;;;23.53;;
20441;SDS011;10380;52.102;20.614;2023-01-04T07:50:19;71.73;;;29.73;;
20441;SDS011;10380;52.102;20.614;2023-01-04T07:52:46;72.53;;;31.43;;
20441;SDS011;10380;52.102;20.614;2023-01-04T07:55:13;77.97;;;34.27;;
20441;SDS011;10380;52.102;20.614;2023-01-04T07:57:41;77.67;;;31.57;;
20441;SDS011;10380;52.102;20.614;2023-01-04T08:00:08;73.00;;;33.33;;
20441;SDS011;10380;52.102;20.614;2023-01-04T08:02:36;60.50;;;27.87;;
20441;SDS011;10380;52.102;20.614;2023-01-04T08:05:05;55.70;;;25.87;;
20441;SDS011;10380;52.102;20.614;2023-01-04T08:07:33;43.00;;;22.97;;
20441;SDS011;10380;52.102;20.614;2023-01-04T08:10:00;42.00;;;24.30;;
20441;SDS011;10380;52.102;20.614;2023-01-04T08:12:27;37.63;;;21.77;;
20441;SDS011;10380;52.102;20.614;2023-01-04T08:14:54;41.57;;;23.23;;
20441;SDS011;10380;52.102;20.614;2023-01-04T08:17:21;44.00;;;22.40;;
20441;SDS011;10380;52.102;20.614;2023-01-04T08:19:49;35.73;;;20.00;;
20441;SDS011;10380;52.102;20.614;2023-01-04T08:22:16;44.60;;;22.27;;
20441;SDS011;10380;52.102;20.614;2023-01-04T08:24:43;50.17;;;23.87;;
20441;SDS011;10380;52.102;20.614;2023-01-04T08:27:10;38.97;;;21.17;;
20441;SDS011;10380;52.102;20.614;2023-01-04T08:29:37;40.80;;;21.10;;
20441;SDS011;10380;52.102;20.614;2023-01-04T08:32:05;41.43;;;19.33;;
20441;SDS011;10380;52.102;20.614;2023-01-04T08:34:32;38.17;;;19.30;;
20441;SDS011;10380;52.102;20.614;2023-01-04T08:37:00;39.87;;;21.83;;
20441;SDS011;10380;52.102;20.614;2023-01-04T08:39:27;32.27;;;19.17;;
20441;SDS011;10380;52.102;20.614;2023-01-04T08:41:58;35.37;;;19.37;;
20441;SDS011;10380;52.102;20.614;2023-01-04T08:44:44;43.17;;;22.43;;
20441;SDS011;10380;52.102;20.614;2023-01-04T08:47:11;29.47;;;17.73;;
20441;SDS011;10380;52.102;20.614;2023-01-04T08:49:38;39.13;;;21.17;;
20441;SDS011;10380;52.102;20.614;2023-01-04T08:52:06;36.83;;;20.43;;
20441;SDS011;10380;52.102;20.614;2023-01-04T08:54:35;43.73;;;20.30;;
20441;SDS011;10380;52.102;20.614;2023-01-04T08:57:02;42.57;;;19.57;;
20441;SDS011;10380;52.102;20.614;2023-01-04T08:59:31;33.03;;;17.73;;
20441;SDS011;10380;52.102;20.614;2023-01-04T09:01:58;30.47;;;16.83;;
20441;SDS011;10380;52.102;20.614;2023-01-04T09:04:30;29.67;;;16.03;;
20441;SDS011;10380;52.102;20.614;2023-01-04T09:06:58;32.03;;;16.83;;
20441;SDS011;10380;52.102;20.614;2023-01-04T09:09:25;24.03;;;14.20;;
20441;SDS011;10380;52.102;20.614;2023-01-04T09:11:58;32.00;;;17.17;;
20441;SDS011;10380;52.102;20.614;2023-01-04T09:14:26;39.07;;;19.07;;
20441;SDS011;10380;52.102;20.614;2023-01-04T09:16:53;35.10;;;19.13;;
20441;SDS011;10380;52.102;20.614;2023-01-04T09:19:21;28.67;;;17.07;;
20441;SDS011;10380;52.102;20.614;2023-01-04T09:21:48;27.97;;;15.60;;
20441;SDS011;10380;52.102;20.614;2023-01-04T09:24:15;36.03;;;17.80;;
20441;SDS011;10380;52.102;20.614;2023-01-04T09:26:43;25.57;;;13.80;;
20441;SDS011;10380;52.102;20.614;2023-01-04T09:29:12;25.83;;;15.67;;
20441;SDS011;10380;52.102;20.614;2023-01-04T09:31:40;24.13;;;14.60;;
20441;SDS011;10380;52.102;20.614;2023-01-04T09:34:08;31.40;;;15.50;;
20441;SDS011;10380;52.102;20.614;2023-01-04T09:36:42;27.43;;;16.57;;
20441;SDS011;10380;52.102;20.614;2023-01-04T09:39:10;28.87;;;15.63;;
20441;SDS011;10380;52.102;20.614;2023-01-04T09:47:38;20.67;;;14.03;;
20441;SDS011;10380;52.102;20.614;2023-01-04T09:50:18;29.20;;;13.73;;
20441;SDS011;10380;52.102;20.614;2023-01-04T09:55:42;21.57;;;12.17;;
20441;SDS011;10380;52.102;20.614;2023-01-04T09:58:23;20.67;;;11.83;;
20441;SDS011;10380;52.102;20.614;2023-01-04T10:00:59;26.03;;;14.17;;
20441;SDS011;10380;52.102;20.614;2023-01-04T10:03:31;21.47;;;12.60;;
20441;SDS011;10380;52.102;20.614;2023-01-04T10:06:05;20.60;;;12.40;;
20441;SDS011;10380;52.102;20.614;2023-01-04T10:08:35;23.10;;;11.90;;
20441;SDS011;10380;52.102;20.614;2023-01-04T10:19:57;24.87;;;11.10;;
20441;SDS011;10380;52.102;20.614;2023-01-04T10:23:08;17.80;;;11.33;;
20441;SDS011;10380;52.102;20.614;2023-01-04T10:25:56;19.03;;;10.73;;
20441;SDS011;10380;52.102;20.614;2023-01-04T10:28:38;18.20;;;11.20;;
20441;SDS011;10380;52.102;20.614;2023-01-04T10:31:26;19.43;;;11.70;;
20441;SDS011;10380;52.102;20.614;2023-01-04T10:36:46;18.83;;;10.37;;
20441;SDS011;10380;52.102;20.614;2023-01-04T10:39:16;18.67;;;10.80;;
20441;SDS011;10380;52.102;20.614;2023-01-04T10:41:49;17.73;;;10.90;;
20441;SDS011;10380;52.102;20.614;2023-01-04T10:44:41;15.00;;;10.53;;
20441;SDS011;10380;52.102;20.614;2023-01-04T10:47:12;18.07;;;9.87;;
20441;SDS011;10380;52.102;20.614;2023-01-04T10:50:00;16.77;;;10.90;;
20441;SDS011;10380;52.102;20.614;2023-01-04T10:53:06;23.47;;;11.50;;
20441;SDS011;10380;52.102;20.614;2023-01-04T10:55:46;20.20;;;11.40;;
20441;SDS011;10380;52.102;20.614;2023-01-04T11:01:13;22.37;;;11.63;;
20441;SDS011;10380;52.102;20.614;2023-01-04T11:06:27;18.00;;;10.57;;
20441;SDS011;10380;52.102;20.614;2023-01-04T11:09:03;23.03;;;12.07;;
20441;SDS011;10380;52.102;20.614;2023-01-04T11:11:45;23.30;;;12.93;;
20441;SDS011;10380;52.102;20.614;2023-01-04T11:14:13;23.23;;;11.63;;
20441;SDS011;10380;52.102;20.614;2023-01-04T11:16:40;22.90;;;14.17;;
20441;SDS011;10380;52.102;20.614;2023-01-04T11:19:11;20.93;;;12.13;;
20441;SDS011;10380;52.102;20.614;2023-01-04T11:21:42;19.97;;;10.93;;
20441;SDS011;10380;52.102;20.614;2023-01-04T11:24:16;18.90;;;12.00;;
20441;SDS011;10380;52.102;20.614;2023-01-04T11:27:04;18.27;;;12.07;;
20441;SDS011;10380;52.102;20.614;2023-01-04T11:29:39;18.10;;;10.97;;
20441;SDS011;10380;52.102;20.614;2023-01-04T11:34:46;20.67;;;11.37;;
20441;SDS011;10380;52.102;20.614;2023-01-04T11:37:22;15.07;;;8.57;;
20441;SDS011;10380;52.102;20.614;2023-01-04T11:39:49;14.63;;;10.10;;
20441;SDS011;10380;52.102;20.614;2023-01-04T11:42:20;16.67;;;9.77;;
20441;SDS011;10380;52.102;20.614;2023-01-04T11:44:56;19.10;;;10.70;;
20441;SDS011;10380;52.102;20.614;2023-01-04T11:47:24;17.63;;;10.70;;
20441;SDS011;10380;52.102;20.614;2023-01-04T11:49:58;15.70;;;9.70;;
20441;SDS011;10380;52.102;20.614;2023-01-04T11:52:32;16.27;;;10.00;;
20441;SDS011;10380;52.102;20.614;2023-01-04T11:55:22;17.17;;;9.40;;
20441;SDS011;10380;52.102;20.614;2023-01-04T11:58:08;12.50;;;7.17;;
20441;SDS011;10380;52.102;20.614;2023-01-04T12:00:42;18.53;;;9.50;;
20441;SDS011;10380;52.102;20.614;2023-01-04T12:03:18;18.17;;;10.90;;
20441;SDS011;10380;52.102;20.614;2023-01-04T12:05:54;19.37;;;10.80;;
20441;SDS011;10380;52.102;20.614;2023-01-04T12:08:32;16.53;;;10.17;;
20441;SDS011;10380;52.102;20.614;2023-01-04T12:11:01;16.63;;;9.93;;
20441;SDS011;10380;52.102;20.614;2023-01-04T12:13:31;16.97;;;9.80;;
20441;SDS011;10380;52.102;20.614;2023-01-04T12:16:16;17.00;;;11.40;;
20441;SDS011;10380;52.102;20.614;2023-01-04T12:18:51;17.93;;;11.20;;
20441;SDS011;10380;52.102;20.614;2023-01-04T12:21:23;18.50;;;11.03;;
20441;SDS011;10380;52.102;20.614;2023-01-04T12:23:52;20.30;;;11.40;;
20441;SDS011;10380;52.102;20.614;2023-01-04T12:26:21;17.87;;;11.93;;
20441;SDS011;10380;52.102;20.614;2023-01-04T12:28:50;20.13;;;10.77;;
20441;SDS011;10380;52.102;20.614;2023-01-04T12:31:36;19.63;;;10.90;;
20441;SDS011;10380;52.102;20.614;2023-01-04T12:50:06;21.60;;;12.27;;
20441;SDS011;10380;52.102;20.614;2023-01-04T12:52:46;19.93;;;13.00;;
20441;SDS011;10380;52.102;20.614;2023-01-04T12:59:03;18.97;;;11.63;;
20441;SDS011;10380;52.102;20.614;2023-01-04T13:01:24;21.10;;;11.80;;
20441;SDS011;10380;52.102;20.614;2023-01-04T13:03:54;26.50;;;12.80;;
20441;SDS011;10380;52.102;20.614;2023-01-04T13:06:33;20.93;;;12.27;;
20441;SDS011;10380;52.102;20.614;2023-01-04T13:09:14;20.97;;;12.07;;
20441;SDS011;10380;52.102;20.614;2023-01-04T13:14:26;18.37;;;11.63;;
20441;SDS011;10380;52.102;20.614;2023-01-04T13:19:36;20.33;;;12.37;;
20441;SDS011;10380;52.102;20.614;2023-01-04T13:22:08;24.63;;;13.33;;
20441;SDS011;10380;52.102;20.614;2023-01-04T13:24:42;24.00;;;12.93;;
20441;SDS011;10380;52.102;20.614;2023-01-04T13:27:14;20.40;;;12.30;;
20441;SDS011;10380;52.102;20.614;2023-01-04T13:29:49;18.27;;;10.67;;
20441;SDS011;10380;52.102;20.614;2023-01-04T13:32:19;21.07;;;12.97;;
20441;SDS011;10380;52.102;20.614;2023-01-04T13:37:41;25.97;;;14.13;;
20441;SDS011;10380;52.102;20.614;2023-01-04T13:40:13;22.50;;;12.10;;
20441;SDS011;10380;52.102;20.614;2023-01-04T13:45:58;17.30;;;12.00;;
20441;SDS011;10380;52.102;20.614;2023-01-04T13:48:36;19.37;;;11.23;;
20441;SDS011;10380;52.102;20.614;2023-01-04T13:53:52;20.70;;;13.00;;
20441;SDS011;10380;52.102;20.614;2023-01-04T13:56:21;21.23;;;12.57;;
20441;SDS011;10380;52.102;20.614;2023-01-04T13:58:50;21.77;;;12.50;;
20441;SDS011;10380;52.102;20.614;2023-01-04T14:04:28;20.97;;;12.13;;
20441;SDS011;10380;52.102;20.614;2023-01-04T14:06:57;25.13;;;12.50;;
20441;SDS011;10380;52.102;20.614;2023-01-04T14:09:27;21.70;;;12.80;;
20441;SDS011;10380;52.102;20.614;2023-01-04T14:11:58;21.80;;;12.50;;
20441;SDS011;10380;52.102;20.614;2023-01-04T14:19:38;19.30;;;10.73;;
20441;SDS011;10380;52.102;20.614;2023-01-04T14:22:32;22.23;;;12.07;;
20441;SDS011;10380;52.102;20.614;2023-01-04T14:24:55;16.70;;;10.40;;
20441;SDS011;10380;52.102;20.614;2023-01-04T14:27:44;14.87;;;8.93;;
20441;SDS011;10380;52.102;20.614;2023-01-04T14:30:21;20.73;;;11.27;;
20441;SDS011;10380;52.102;20.614;2023-01-04T14:35:23;17.37;;;10.20;;
20441;SDS011;10380;52.102;20.614;2023-01-04T14:37:52;17.77;;;10.03;;
20441;SDS011;10380;52.102;20.614;2023-01-04T14:40:24;19.90;;;10.70;;
20441;SDS011;10380;52.102;20.614;2023-01-04T14:42:53;16.73;;;11.13;;
20441;SDS011;10380;52.102;20.614;2023-01-04T14:45:20;18.83;;;11.03;;
20441;SDS011;10380;52.102;20.614;2023-01-04T14:47:48;18.33;;;9.57;;
20441;SDS011;10380;52.102;20.614;2023-01-04T14:50:16;18.33;;;11.17;;
20441;SDS011;10380;52.102;20.614;2023-01-04T14:52:52;21.90;;;13.17;;
20441;SDS011;10380;52.102;20.614;2023-01-04T14:55:20;19.97;;;11.57;;
20441;SDS011;10380;52.102;20.614;2023-01-04T14:57:49;20.77;;;10.93;;
20441;SDS011;10380;52.102;20.614;2023-01-04T15:00:16;17.47;;;10.37;;
20441;SDS011;10380;52.102;20.614;2023-01-04T15:02:45;19.00;;;9.97;;
20441;SDS011;10380;52.102;20.614;2023-01-04T15:05:16;20.30;;;13.57;;
20441;SDS011;10380;52.102;20.614;2023-01-04T15:07:45;20.73;;;11.97;;
20441;SDS011;10380;52.102;20.614;2023-01-04T15:10:26;11.03;;;6.47;;
20441;SDS011;10380;52.102;20.614;2023-01-04T15:12:55;20.13;;;10.63;;
20441;SDS011;10380;52.102;20.614;2023-01-04T15:15:26;17.77;;;9.90;;
20441;SDS011;10380;52.102;20.614;2023-01-04T15:17:54;16.57;;;10.43;;
20441;SDS011;10380;52.102;20.614;2023-01-04T15:20:21;17.07;;;9.57;;
20441;SDS011;10380;52.102;20.614;2023-01-04T15:22:48;17.90;;;9.80;;
20441;SDS011;10380;52.102;20.614;2023-01-04T15:25:16;15.33;;;7.20;;
20441;SDS011;10380;52.102;20.614;2023-01-04T15:27:43;21.67;;;10.30;;
20441;SDS011;10380;52.102;20.614;2023-01-04T15:30:11;10.97;;;7.97;;
20441;SDS011;10380;52.102;20.614;2023-01-04T15:32:38;15.60;;;9.30;;
20441;SDS011;10380;52.102;20.614;2023-01-04T15:35:06;15.13;;;8.73;;
20441;SDS011;10380;52.102;20.614;2023-01-04T15:37:33;18.33;;;8.87;;
20441;SDS011;10380;52.102;20.614;2023-01-04T15:40:01;15.27;;;8.60;;
20441;SDS011;10380;52.102;20.614;2023-01-04T15:42:29;16.37;;;10.30;;
20441;SDS011;10380;52.102;20.614;2023-01-04T15:45:15;14.40;;;8.50;;
20441;SDS011;10380;52.102;20.614;2023-01-04T15:47:42;19.70;;;8.77;;
20441;SDS011;10380;52.102;20.614;2023-01-04T15:50:09;14.00;;;8.33;;
20441;SDS011;10380;52.102;20.614;2023-01-04T15:52:37;16.50;;;8.83;;
20441;SDS011;10380;52.102;20.614;2023-01-04T15:55:04;15.20;;;8.17;;
20441;SDS011;10380;52.102;20.614;2023-01-04T15:57:31;12.67;;;8.27;;
20441;SDS011;10380;52.102;20.614;2023-01-04T16:00:05;14.90;;;8.13;;
20441;SDS011;10380;52.102;20.614;2023-01-04T16:02:33;11.20;;;6.67;;
20441;SDS011;10380;52.102;20.614;2023-01-04T16:05:01;17.57;;;8.60;;
20441;SDS011;10380;52.102;20.614;2023-01-04T16:07:28;13.40;;;8.80;;
20441;SDS011;10380;52.102;20.614;2023-01-04T16:10:02;11.63;;;7.37;;
20441;SDS011;10380;52.102;20.614;2023-01-04T16:12:29;12.73;;;7.87;;
20441;SDS011;10380;52.102;20.614;2023-01-04T16:15:14;13.73;;;7.60;;
20441;SDS011;10380;52.102;20.614;2023-01-04T16:17:43;11.07;;;6.53;;
20441;SDS011;10380;52.102;20.614;2023-01-04T16:20:11;8.90;;;6.50;;
20441;SDS011;10380;52.102;20.614;2023-01-04T16:22:41;12.90;;;6.47;;
20441;SDS011;10380;52.102;20.614;2023-01-04T16:25:09;11.10;;;6.97;;
20441;SDS011;10380;52.102;20.614;2023-01-04T16:27:37;10.27;;;7.03;;